Possumneck, Mississippi
Current Conditions -  °F | °C
As of 6:53 PM on Saturday 20 Dec 2014 (Local Time) from KGWO Reporting Station
Clear Clear  
Wind Chill: 38°   Ceiling: Unl
Heat Index: 42°   Visibility: 10mi
Dew Point: 35°   Wind: 6mph
Humidity: 76%   Direction: 50°NE
Pressure: 30.2"   Gusts: NA
Location:  33.2035°N, 89.7849°W
Report Text: KGWO 210053Z AUTO 05005KT 10SM CLR 06/02 A3020 RMK AO2 SLP228 T00560017
Loading
Personal Weather Stations






























Interactive Weather Map New forecast layout! Learn more

10-Day Weather Forecast

Advertisements
Track Severe Weather on mobile